createdAt,value
2019-05-17T00:00:29.423Z,48.60
2019-05-17T00:02:57.181Z,48.60
2019-05-17T00:05:23.586Z,48.60
2019-05-17T00:07:49.870Z,48.60
2019-05-17T00:10:17.301Z,48.60
2019-05-17T00:12:44.071Z,48.50
2019-05-17T00:15:11.452Z,48.50
2019-05-17T00:17:38.010Z,48.60
2019-05-17T00:20:07.635Z,48.60
2019-05-17T00:22:36.402Z,48.60
2019-05-17T00:25:04.531Z,48.80
2019-05-17T00:27:30.893Z,48.80
2019-05-17T00:29:57.299Z,48.80
2019-05-17T00:32:23.954Z,48.80
2019-05-17T00:34:50.234Z,48.90
2019-05-17T00:37:17.435Z,48.90
2019-05-17T00:39:43.987Z,49.00
2019-05-17T00:42:10.611Z,49.00
2019-05-17T00:44:36.893Z,49.00
2019-05-17T00:47:03.470Z,49.10
2019-05-17T00:49:29.762Z,49.10
2019-05-17T00:51:56.735Z,49.20
2019-05-17T00:54:23.249Z,49.30
2019-05-17T00:56:49.507Z,49.30
2019-05-17T00:59:17.087Z,49.30
2019-05-17T01:01:44.023Z,49.40
2019-05-17T01:04:10.478Z,49.40
2019-05-17T01:06:37.698Z,49.40
2019-05-17T01:09:07.612Z,49.50
2019-05-17T01:11:33.467Z,49.60
2019-05-17T01:13:59.972Z,49.70
2019-05-17T01:16:27.235Z,49.70
2019-05-17T01:18:53.775Z,49.60
2019-05-17T01:21:20.151Z,49.70
2019-05-17T01:23:46.812Z,49.80
2019-05-17T01:26:13.210Z,49.90
2019-05-17T01:28:39.611Z,49.90
2019-05-17T01:31:07.185Z,50.00
2019-05-17T01:33:33.790Z,50.00
2019-05-17T01:36:00.055Z,50.10
2019-05-17T01:38:26.914Z,50.10
2019-05-17T01:40:53.489Z,50.00
2019-05-17T01:43:19.878Z,50.00
2019-05-17T01:45:48.050Z,50.00
2019-05-17T01:48:16.338Z,50.00
2019-05-17T01:50:42.511Z,50.10
2019-05-17T01:53:10.182Z,50.10
2019-05-17T01:55:37.516Z,50.20
2019-05-17T01:58:06.996Z,50.30
2019-05-17T02:00:32.798Z,50.30
2019-05-17T02:02:59.244Z,50.30
2019-05-17T02:05:27.402Z,50.80
2019-05-17T02:07:54.017Z,50.60
2019-05-17T02:10:21.411Z,50.50
2019-05-17T02:12:49.029Z,50.50
2019-05-17T02:15:17.995Z,50.50
2019-05-17T02:17:46.941Z,50.70
2019-05-17T02:20:13.670Z,50.60
2019-05-17T02:22:40.292Z,50.60
2019-05-17T02:25:09.093Z,50.60
2019-05-17T02:27:41.051Z,50.60
2019-05-17T02:30:07.917Z,50.70
2019-05-17T02:32:34.896Z,50.80
2019-05-17T02:35:03.422Z,50.80
2019-05-17T02:37:29.560Z,50.80
2019-05-17T02:40:02.726Z,50.90
2019-05-17T02:42:24.128Z,50.90
2019-05-17T02:44:53.162Z,51.00
2019-05-17T02:47:19.268Z,50.90
2019-05-17T02:49:45.762Z,51.00
2019-05-17T02:52:12.660Z,51.00
2019-05-17T02:54:39.031Z,51.10
2019-05-17T02:57:05.320Z,51.10
2019-05-17T02:59:33.118Z,51.20
2019-05-17T03:02:03.195Z,51.10
2019-05-17T03:04:28.590Z,51.10
2019-05-17T03:06:55.435Z,51.10
2019-05-17T03:09:22.852Z,51.10
2019-05-17T03:11:52.858Z,51.20
2019-05-17T03:14:17.655Z,51.20
2019-05-17T03:16:43.953Z,51.30
2019-05-17T03:19:13.061Z,51.30
2019-05-17T03:21:38.756Z,51.30
2019-05-17T03:24:05.252Z,51.30
2019-05-17T03:26:32.818Z,51.30
2019-05-17T03:29:02.895Z,51.40
2019-05-17T03:31:34.438Z,51.40
2019-05-17T03:33:56.993Z,51.40
2019-05-17T03:36:25.947Z,51.40
2019-05-17T03:38:53.403Z,51.40
2019-05-17T03:41:24.916Z,51.50
2019-05-17T03:43:48.284Z,51.50
2019-05-17T03:46:14.744Z,51.60
2019-05-17T03:48:43.501Z,51.60
2019-05-17T03:51:13.175Z,51.60
2019-05-17T03:53:39.003Z,51.60
2019-05-17T03:56:06.683Z,51.60
2019-05-17T03:58:33.571Z,51.70
2019-05-17T04:01:03.764Z,51.70
2019-05-17T04:03:31.259Z,51.70
2019-05-17T04:05:56.907Z,51.70
2019-05-17T04:08:23.291Z,51.70
2019-05-17T04:10:52.696Z,51.70
2019-05-17T04:13:18.101Z,51.80
2019-05-17T04:15:44.395Z,51.80
2019-05-17T04:18:13.023Z,51.90
2019-05-17T04:20:38.985Z,51.90
2019-05-17T04:23:05.360Z,51.90
2019-05-17T04:25:33.527Z,51.90
2019-05-17T04:28:02.733Z,52.00
2019-05-17T04:30:28.213Z,52.00
2019-05-17T04:32:54.627Z,52.10
2019-05-17T04:35:23.298Z,52.10
2019-05-17T04:37:52.793Z,52.20
2019-05-17T04:40:17.815Z,52.10
2019-05-17T04:42:44.701Z,52.20
2019-05-17T04:45:12.783Z,52.30
2019-05-17T04:47:39.972Z,52.30
2019-05-17T04:50:06.447Z,52.30
2019-05-17T04:52:33.726Z,52.40
2019-05-17T04:55:03.718Z,52.50
2019-05-17T04:57:28.422Z,52.40
2019-05-17T04:59:54.880Z,52.50
2019-05-17T05:02:23.658Z,52.50
2019-05-17T05:04:53.160Z,52.50
2019-05-17T05:07:17.991Z,52.50
2019-05-17T05:09:44.586Z,52.70
2019-05-17T05:12:12.502Z,52.60
2019-05-17T05:14:42.883Z,52.70
2019-05-17T05:17:08.135Z,52.70
2019-05-17T05:19:34.456Z,52.70
2019-05-17T05:22:04.488Z,52.70
2019-05-17T05:24:29.024Z,52.60
2019-05-17T05:26:55.395Z,52.60
2019-05-17T05:29:21.762Z,52.70
2019-05-17T05:31:48.083Z,52.60
2019-05-17T05:34:14.799Z,52.60
2019-05-17T05:36:41.874Z,52.50
2019-05-17T05:39:08.466Z,52.60
2019-05-17T05:41:34.867Z,52.60
2019-05-17T05:44:02.007Z,52.60
2019-05-17T05:46:28.547Z,52.60
2019-05-17T05:48:55.023Z,52.60
2019-05-17T05:51:21.729Z,53.00
2019-05-17T05:53:48.181Z,52.70
2019-05-17T05:56:14.573Z,52.70
2019-05-17T05:58:42.835Z,52.70
2019-05-17T06:01:09.411Z,52.70
2019-05-17T06:03:35.784Z,52.60
2019-05-17T06:06:02.153Z,52.60
2019-05-17T06:08:28.668Z,52.50
2019-05-17T06:10:55.054Z,52.60
2019-05-17T06:13:21.856Z,52.40
2019-05-17T06:15:48.307Z,52.40
2019-05-17T06:18:14.623Z,52.50
2019-05-17T06:20:41.778Z,52.90
2019-05-17T06:23:08.502Z,52.40
2019-05-17T06:25:34.792Z,52.10
2019-05-17T06:28:01.687Z,52.50
2019-05-17T06:30:28.255Z,52.50
2019-05-17T06:32:54.651Z,52.40
2019-05-17T06:35:21.791Z,52.50
2019-05-17T06:37:48.334Z,52.60
2019-05-17T06:40:15.684Z,52.40
2019-05-17T06:42:45.172Z,52.30
2019-05-17T06:45:12.435Z,52.30
2019-05-17T06:47:42.725Z,52.50
2019-05-17T06:50:10.027Z,52.50
2019-05-17T06:52:36.379Z,52.50
2019-05-17T06:55:05.974Z,52.50
2019-05-17T06:57:32.663Z,52.40
2019-05-17T07:00:00.238Z,52.40
2019-05-17T07:02:27.400Z,52.50
2019-05-17T07:04:55.876Z,52.60
2019-05-17T07:07:25.311Z,52.60
2019-05-17T07:09:52.024Z,52.60
2019-05-17T07:12:20.272Z,52.70
2019-05-17T07:14:46.939Z,52.70
2019-05-17T07:17:13.209Z,52.70
2019-05-17T07:19:40.197Z,52.90
2019-05-17T07:22:09.365Z,53.00
2019-05-17T07:24:36.075Z,53.00
2019-05-17T07:27:02.462Z,53.00
2019-05-17T07:29:29.948Z,53.10
2019-05-17T07:31:56.326Z,53.10
2019-05-17T07:34:22.623Z,53.10
2019-05-17T07:36:50.362Z,53.20
2019-05-17T07:39:16.934Z,53.10
2019-05-17T07:41:43.348Z,53.10
2019-05-17T07:44:10.026Z,53.20
2019-05-17T07:46:36.778Z,53.20
2019-05-17T07:49:03.049Z,53.30
2019-05-17T07:51:30.104Z,53.40
2019-05-17T07:53:56.951Z,53.50
2019-05-17T07:56:23.352Z,53.50
2019-05-17T07:58:49.712Z,53.60
2019-05-17T08:01:15.994Z,53.60
2019-05-17T08:03:42.867Z,53.70
2019-05-17T08:06:10.533Z,53.80
2019-05-17T08:08:37.154Z,53.80
2019-05-17T08:11:03.958Z,53.70
2019-05-17T08:13:33.638Z,53.70
2019-05-17T08:15:59.544Z,53.60
2019-05-17T08:18:26.036Z,53.30
2019-05-17T08:20:52.306Z,53.30
2019-05-17T08:23:20.151Z,53.30
2019-05-17T08:25:52.850Z,53.30
2019-05-17T08:28:15.512Z,53.30
2019-05-17T08:30:42.355Z,53.30
2019-05-17T08:33:10.734Z,53.30
2019-05-17T08:35:36.918Z,53.30
2019-05-17T08:38:03.231Z,53.40
2019-05-17T08:40:30.530Z,53.50
2019-05-17T08:42:57.382Z,53.70
2019-05-17T08:45:23.863Z,53.70
2019-05-17T08:47:50.189Z,53.70
2019-05-17T08:50:17.203Z,54.20
2019-05-17T08:52:44.039Z,53.80
2019-05-17T08:55:10.527Z,53.80
2019-05-17T08:57:39.653Z,53.90
2019-05-17T09:00:06.306Z,54.00
2019-05-17T09:02:32.739Z,54.10
2019-05-17T09:05:00.436Z,54.00
2019-05-17T09:07:29.397Z,54.00
2019-05-17T09:09:55.314Z,53.70
2019-05-17T09:12:21.960Z,53.80
2019-05-17T09:14:49.646Z,53.70
2019-05-17T09:17:16.473Z,53.70
2019-05-17T09:19:42.868Z,53.60
2019-05-17T09:22:10.456Z,53.80
2019-05-17T09:24:39.500Z,54.00
2019-05-17T09:27:05.715Z,54.20
2019-05-17T09:29:32.107Z,54.40
2019-05-17T09:31:59.941Z,54.30
2019-05-17T09:34:26.564Z,54.50
2019-05-17T09:36:52.954Z,54.30
2019-05-17T09:39:20.110Z,54.10
2019-05-17T09:41:46.883Z,54.10
2019-05-17T09:44:16.408Z,54.10
2019-05-17T09:46:41.775Z,53.80
2019-05-17T09:49:10.358Z,53.60
2019-05-17T09:51:36.776Z,53.60
2019-05-17T09:54:03.242Z,53.40
2019-05-17T09:56:30.053Z,53.30
2019-05-17T09:59:00.221Z,52.90
2019-05-17T10:01:30.158Z,53.00
2019-05-17T10:03:56.355Z,53.40
2019-05-17T10:06:22.954Z,52.80
2019-05-17T10:08:49.685Z,52.80
2019-05-17T10:11:16.434Z,52.80
2019-05-17T10:13:42.708Z,52.70
2019-05-17T10:16:10.151Z,52.70
2019-05-17T10:18:37.069Z,52.70
2019-05-17T10:21:03.547Z,52.60
2019-05-17T10:23:30.338Z,52.70
2019-05-17T10:25:56.816Z,53.00
2019-05-17T10:28:23.204Z,52.80
2019-05-17T10:30:52.293Z,52.80
2019-05-17T10:33:20.036Z,52.80
2019-05-17T10:35:46.403Z,52.70
2019-05-17T10:38:12.714Z,52.50
2019-05-17T10:40:40.935Z,52.50
2019-05-17T10:43:09.839Z,53.10
2019-05-17T10:45:35.570Z,52.60
2019-05-17T10:48:02.153Z,52.30
2019-05-17T10:50:29.807Z,52.00
2019-05-17T10:52:56.864Z,51.50
2019-05-17T10:55:23.223Z,51.20
2019-05-17T10:57:50.524Z,50.80
2019-05-17T11:00:19.684Z,50.50
2019-05-17T11:02:46.899Z,50.20
2019-05-17T11:05:13.567Z,50.10
2019-05-17T11:07:40.179Z,50.10
2019-05-17T11:10:06.948Z,50.30
2019-05-17T11:12:33.360Z,50.20
2019-05-17T11:15:10.212Z,50.30
2019-05-17T11:17:28.379Z,50.10
2019-05-17T11:19:54.787Z,50.20
2019-05-17T11:22:21.357Z,50.00
2019-05-17T11:24:48.192Z,50.00
2019-05-17T11:27:14.556Z,49.90
2019-05-17T11:29:40.997Z,49.90
2019-05-17T11:32:07.683Z,49.90
2019-05-17T11:34:35.448Z,49.90
2019-05-17T11:37:01.743Z,50.00
2019-05-17T11:39:28.426Z,49.90
2019-05-17T11:41:54.790Z,50.10
2019-05-17T11:44:21.089Z,50.10
2019-05-17T11:46:47.710Z,50.20
2019-05-17T11:49:14.102Z,50.30
2019-05-17T11:51:40.371Z,50.30
2019-05-17T11:54:06.770Z,50.20
2019-05-17T11:56:33.232Z,50.10
2019-05-17T11:58:59.754Z,49.90
2019-05-17T12:01:26.129Z,49.90
2019-05-17T12:03:53.740Z,49.90
2019-05-17T12:06:20.280Z,50.00
2019-05-17T12:08:46.890Z,50.50
2019-05-17T12:11:13.283Z,50.90
2019-05-17T12:13:43.224Z,51.10
2019-05-17T12:16:07.763Z,50.90
2019-05-17T12:18:34.141Z,50.80
2019-05-17T12:21:00.915Z,50.70
2019-05-17T12:23:27.605Z,50.70
2019-05-17T12:25:54.018Z,50.90
2019-05-17T12:28:20.675Z,50.40
2019-05-17T12:31:06.927Z,49.70
2019-05-17T12:33:33.379Z,49.20
2019-05-17T12:35:59.786Z,49.00
2019-05-17T12:38:26.316Z,48.70
2019-05-17T12:40:52.943Z,48.30
2019-05-17T12:43:19.329Z,47.80
2019-05-17T12:45:59.612Z,47.00
2019-05-17T12:48:13.794Z,46.60
2019-05-17T12:50:40.373Z,46.10
2019-05-17T12:53:07.880Z,46.00
2019-05-17T12:55:34.154Z,45.00
2019-05-17T12:58:14.440Z,44.40
2019-05-17T13:00:40.804Z,43.80
2019-05-17T13:03:07.211Z,43.70
2019-05-17T13:05:33.554Z,43.50
2019-05-17T13:07:59.865Z,43.20
2019-05-17T13:10:26.237Z,43.30
2019-05-17T13:12:52.531Z,43.50
2019-05-17T13:15:19.118Z,43.80
2019-05-17T13:17:45.690Z,44.00
2019-05-17T13:20:12.953Z,44.20
2019-05-17T13:22:39.423Z,44.30
2019-05-17T13:25:07.055Z,44.30
2019-05-17T13:27:33.416Z,44.30
2019-05-17T13:29:59.715Z,44.60
2019-05-17T13:32:26.101Z,45.60
2019-05-17T13:34:52.483Z,45.70
2019-05-17T13:37:18.769Z,45.60
2019-05-17T13:39:45.446Z,45.40
2019-05-17T13:42:11.924Z,45.80
2019-05-17T13:44:38.364Z,45.60
2019-05-17T13:47:04.644Z,45.10
2019-05-17T13:49:30.955Z,44.30
2019-05-17T13:51:57.324Z,43.60
2019-05-17T13:54:23.735Z,43.10
2019-05-17T13:56:50.102Z,42.80
2019-05-17T13:59:16.498Z,42.40
2019-05-17T14:01:42.771Z,42.40
2019-05-17T14:04:09.468Z,42.20
2019-05-17T14:06:36.207Z,42.20
2019-05-17T14:09:05.295Z,42.20
2019-05-17T14:11:31.809Z,41.80
2019-05-17T14:13:58.486Z,41.80
2019-05-17T14:16:25.237Z,41.80
2019-05-17T14:18:51.601Z,41.60
2019-05-17T14:21:18.296Z,41.70
2019-05-17T14:23:44.768Z,42.30
2019-05-17T14:26:11.066Z,41.90
2019-05-17T14:28:37.628Z,42.00
2019-05-17T14:31:04.123Z,41.90
2019-05-17T14:33:31.066Z,42.00
2019-05-17T14:35:57.477Z,42.00
2019-05-17T14:38:23.883Z,42.10
2019-05-17T14:41:08.148Z,42.20
2019-05-17T14:43:18.972Z,42.30
2019-05-17T14:45:45.456Z,42.30
2019-05-17T14:48:12.227Z,42.40
2019-05-17T14:50:38.633Z,42.60
2019-05-17T14:53:05.307Z,42.60
2019-05-17T14:55:31.582Z,42.70
2019-05-17T14:57:57.883Z,43.00
2019-05-17T15:00:25.143Z,43.10
2019-05-17T15:02:52.172Z,43.10
2019-05-17T15:05:18.639Z,43.00
2019-05-17T15:07:44.980Z,42.90
2019-05-17T15:10:11.946Z,42.90
2019-05-17T15:12:38.814Z,43.00
2019-05-17T15:15:07.840Z,42.90
2019-05-17T15:17:35.414Z,43.00
2019-05-17T15:20:04.046Z,43.00
2019-05-17T15:22:30.334Z,43.10
2019-05-17T15:24:56.823Z,42.80
2019-05-17T15:27:23.211Z,42.90
2019-05-17T15:29:49.479Z,42.90
2019-05-17T15:32:16.043Z,43.00
2019-05-17T15:34:42.662Z,43.00
2019-05-17T15:37:09.075Z,43.10
2019-05-17T15:39:35.475Z,43.10
2019-05-17T15:42:01.873Z,43.20
2019-05-17T15:44:28.603Z,43.40
2019-05-17T15:46:54.982Z,43.40
2019-05-17T15:49:21.295Z,43.30
2019-05-17T15:51:47.779Z,43.00
2019-05-17T15:54:14.182Z,42.70
2019-05-17T15:56:40.448Z,42.30
2019-05-17T15:59:06.938Z,42.00
2019-05-17T16:01:33.307Z,41.80
2019-05-17T16:03:59.962Z,41.70
2019-05-17T16:06:26.238Z,41.40
2019-05-17T16:08:52.666Z,41.30
2019-05-17T16:11:19.228Z,41.40
2019-05-17T16:13:45.523Z,41.30
2019-05-17T16:16:11.828Z,41.20
2019-05-17T16:18:38.459Z,41.00
2019-05-17T16:21:04.943Z,41.00
2019-05-17T16:23:31.637Z,41.00
2019-05-17T16:25:58.030Z,41.10
2019-05-17T16:28:24.713Z,41.00
2019-05-17T16:30:51.171Z,40.90
2019-05-17T16:33:17.775Z,40.90
2019-05-17T16:35:44.419Z,41.00
2019-05-17T16:38:10.722Z,41.10
2019-05-17T16:40:37.014Z,41.10
2019-05-17T16:43:17.201Z,41.20
2019-05-17T16:45:31.770Z,41.10
2019-05-17T16:47:58.130Z,41.30
2019-05-17T16:50:24.547Z,41.30
2019-05-17T16:53:05.045Z,41.20
2019-05-17T16:55:18.998Z,41.10
2019-05-17T16:57:45.263Z,41.10
2019-05-17T17:00:26.500Z,41.20
2019-05-17T17:02:53.832Z,41.20
2019-05-17T17:05:21.248Z,41.20
2019-05-17T17:07:47.632Z,41.30
2019-05-17T17:10:14.288Z,41.40
2019-05-17T17:12:40.676Z,41.40
2019-05-17T17:15:07.959Z,41.30
2019-05-17T17:17:34.251Z,41.20
2019-05-17T17:20:00.523Z,41.20
2019-05-17T17:22:27.106Z,41.20
2019-05-17T17:24:53.680Z,41.30
2019-05-17T17:27:19.964Z,41.30
2019-05-17T17:29:46.342Z,41.30
2019-05-17T17:32:21.080Z,41.20
2019-05-17T17:34:40.920Z,41.20
2019-05-17T17:37:07.211Z,41.30
2019-05-17T17:39:33.606Z,41.40
2019-05-17T17:42:00.003Z,41.40
2019-05-17T17:44:26.277Z,41.50
2019-05-17T17:46:53.003Z,41.60
2019-05-17T17:49:19.293Z,41.60
2019-05-17T17:51:45.771Z,41.70
2019-05-17T17:54:12.164Z,41.90
2019-05-17T17:56:38.942Z,41.80
2019-05-17T17:59:05.471Z,42.00
2019-05-17T18:01:31.950Z,42.10
2019-05-17T18:03:58.438Z,42.20
2019-05-17T18:06:24.702Z,42.30
2019-05-17T18:08:51.320Z,42.50
2019-05-17T18:11:17.591Z,42.70
2019-05-17T18:13:45.202Z,42.80
2019-05-17T18:16:11.487Z,42.70
2019-05-17T18:18:37.980Z,42.60
2019-05-17T18:21:04.565Z,42.50
2019-05-17T18:23:31.250Z,42.60
2019-05-17T18:25:57.623Z,43.10
2019-05-17T18:28:24.329Z,42.90
2019-05-17T18:30:50.798Z,42.60
2019-05-17T18:33:17.451Z,43.00
2019-05-17T18:35:44.346Z,43.30
2019-05-17T18:38:13.704Z,43.40
2019-05-17T18:40:40.377Z,43.40
2019-05-17T18:43:07.188Z,43.50
2019-05-17T18:45:33.691Z,43.50
2019-05-17T18:48:00.071Z,43.60
2019-05-17T18:50:27.703Z,43.80
2019-05-17T18:52:54.510Z,43.90
2019-05-17T18:55:21.443Z,44.10
2019-05-17T18:57:47.820Z,44.20
2019-05-17T19:00:15.727Z,44.30
2019-05-17T19:02:42.203Z,44.50
2019-05-17T19:05:08.927Z,44.60
2019-05-17T19:07:35.212Z,44.70
2019-05-17T19:10:06.496Z,44.80
2019-05-17T19:12:33.335Z,44.90
2019-05-17T19:15:00.712Z,45.00
2019-05-17T19:17:27.740Z,45.20
2019-05-17T19:19:54.498Z,45.20
2019-05-17T19:22:21.227Z,45.30
2019-05-17T19:24:47.919Z,45.30
2019-05-17T19:27:14.369Z,45.50
2019-05-17T19:29:44.676Z,45.60
2019-05-17T19:32:11.264Z,45.50
2019-05-17T19:34:37.905Z,45.70
2019-05-17T19:37:04.243Z,45.80
2019-05-17T19:39:30.976Z,45.90
2019-05-17T19:41:57.703Z,46.00
2019-05-17T19:44:23.978Z,46.20
2019-05-17T19:46:50.782Z,46.20
2019-05-17T19:49:17.153Z,46.40
2019-05-17T19:51:43.543Z,46.50
2019-05-17T19:54:09.822Z,46.70
2019-05-17T19:56:36.163Z,46.70
2019-05-17T19:59:03.162Z,46.90
2019-05-17T20:01:29.649Z,47.00
2019-05-17T20:03:56.046Z,47.10
2019-05-17T20:06:22.571Z,47.20
2019-05-17T20:08:49.143Z,47.30
2019-05-17T20:11:15.734Z,47.40
2019-05-17T20:13:42.580Z,47.50
2019-05-17T20:16:08.964Z,47.30
2019-05-17T20:18:36.415Z,47.60
2019-05-17T20:21:02.895Z,48.30
2019-05-17T20:23:29.265Z,47.80
2019-05-17T20:25:55.635Z,47.90
2019-05-17T20:28:21.926Z,48.00
2019-05-17T20:30:48.206Z,48.10
2019-05-17T20:33:14.973Z,48.30
2019-05-17T20:35:41.331Z,48.30
2019-05-17T20:38:07.610Z,48.40
2019-05-17T20:40:34.169Z,48.60
2019-05-17T20:43:00.530Z,48.50
2019-05-17T20:45:33.150Z,48.70
2019-05-17T20:47:55.613Z,48.70
2019-05-17T20:50:22.356Z,48.80
2019-05-17T20:52:48.632Z,48.80
2019-05-17T20:55:15.426Z,48.80
2019-05-17T20:57:42.011Z,49.00
2019-05-17T21:00:09.438Z,49.00
2019-05-17T21:02:35.923Z,49.00
2019-05-17T21:05:04.720Z,49.10
2019-05-17T21:07:31.107Z,49.10
2019-05-17T21:09:57.429Z,49.10
2019-05-17T21:12:23.776Z,49.20
2019-05-17T21:14:50.453Z,49.20
2019-05-17T21:17:16.753Z,49.30
2019-05-17T21:19:43.063Z,49.20
2019-05-17T21:22:09.431Z,49.30
2019-05-17T21:24:35.823Z,49.20
2019-05-17T21:27:02.322Z,49.30
2019-05-17T21:29:28.822Z,49.40
2019-05-17T21:31:55.301Z,49.40
2019-05-17T21:34:22.039Z,49.50
2019-05-17T21:36:48.511Z,49.50
2019-05-17T21:39:15.423Z,49.50
2019-05-17T21:41:41.912Z,49.60
2019-05-17T21:44:08.293Z,49.60
2019-05-17T21:46:34.578Z,49.70
2019-05-17T21:49:00.855Z,49.70
2019-05-17T21:51:27.578Z,49.70
2019-05-17T21:53:53.850Z,49.70
2019-05-17T21:56:20.144Z,49.80
2019-05-17T21:58:46.506Z,49.90
2019-05-17T22:01:18.237Z,50.00
2019-05-17T22:03:44.912Z,50.10
2019-05-17T22:06:11.818Z,50.20
2019-05-17T22:08:38.665Z,50.20
2019-05-17T22:11:05.508Z,50.30
2019-05-17T22:13:32.071Z,50.30
2019-05-17T22:15:58.459Z,50.40
2019-05-17T22:18:24.747Z,50.40
2019-05-17T22:20:51.443Z,50.50
2019-05-17T22:23:17.991Z,50.70
2019-05-17T22:25:44.383Z,50.70
2019-05-17T22:28:10.955Z,50.70
2019-05-17T22:30:37.322Z,50.80
2019-05-17T22:33:03.723Z,51.00
2019-05-17T22:35:30.079Z,51.10
2019-05-17T22:37:56.674Z,51.20
2019-05-17T22:40:23.051Z,51.40
2019-05-17T22:42:49.338Z,51.40
2019-05-17T22:45:15.616Z,51.50
2019-05-17T22:47:42.007Z,51.70
2019-05-17T22:50:08.480Z,51.80
2019-05-17T22:52:35.968Z,51.80
2019-05-17T22:55:03.943Z,51.80
2019-05-17T22:57:30.243Z,52.00
2019-05-17T22:59:56.871Z,52.00
2019-05-17T23:02:23.679Z,52.40
2019-05-17T23:04:50.318Z,52.10
2019-05-17T23:07:16.590Z,52.10
2019-05-17T23:09:42.970Z,52.10
2019-05-17T23:12:09.286Z,52.40
2019-05-17T23:14:35.780Z,52.20
2019-05-17T23:17:03.455Z,52.20
2019-05-17T23:19:29.742Z,52.10
2019-05-17T23:21:56.476Z,52.20
2019-05-17T23:24:22.761Z,52.20
2019-05-17T23:26:50.130Z,52.40
2019-05-17T23:29:16.819Z,52.50
2019-05-17T23:31:43.540Z,52.60
2019-05-17T23:34:09.836Z,52.60
2019-05-17T23:36:36.195Z,52.60
2019-05-17T23:39:04.692Z,52.70
2019-05-17T23:41:31.032Z,52.70
2019-05-17T23:43:57.660Z,53.20
2019-05-17T23:46:24.021Z,52.70
2019-05-17T23:48:50.314Z,52.80
2019-05-17T23:51:16.579Z,53.00
2019-05-17T23:53:43.188Z,53.00
2019-05-17T23:56:09.464Z,53.10
2019-05-17T23:58:36.055Z,53.20
